createdAt,value
2024-02-29T00:02:18.085Z,40.35
2024-02-29T00:04:50.316Z,40.95
2024-02-29T00:07:23.101Z,40.33
2024-02-29T00:09:55.350Z,39.37
2024-02-29T00:12:27.695Z,40.63
2024-02-29T00:15:00.168Z,40.83
2024-02-29T00:17:33.018Z,39.05
2024-02-29T00:20:10.336Z,40.10
2024-02-29T00:22:43.227Z,39.13
2024-02-29T00:25:15.450Z,40.67
2024-02-29T00:27:47.771Z,39.10
2024-02-29T00:30:19.967Z,39.67
2024-02-29T00:32:56.798Z,39.45
2024-02-29T00:35:30.142Z,37.63
2024-02-29T00:38:02.403Z,37.83
2024-02-29T00:40:34.568Z,36.75
2024-02-29T00:43:06.833Z,40.00
2024-02-29T00:45:39.324Z,35.75
2024-02-29T00:48:12.467Z,38.03
2024-02-29T00:50:44.891Z,37.20
2024-02-29T00:53:17.610Z,36.92
2024-02-29T00:55:50.398Z,37.90
2024-02-29T00:58:23.428Z,38.90
2024-02-29T01:00:56.019Z,37.83
2024-02-29T01:03:30.069Z,38.00
2024-02-29T01:06:03.027Z,38.28
2024-02-29T01:08:35.669Z,37.67
2024-02-29T01:11:07.989Z,35.75
2024-02-29T01:13:40.202Z,39.33
2024-02-29T01:16:12.537Z,37.45
2024-02-29T01:18:44.870Z,37.70
2024-02-29T01:21:18.010Z,37.13
2024-02-29T01:23:50.234Z,38.38
2024-02-29T01:26:23.020Z,39.53
2024-02-29T01:28:55.407Z,39.55
2024-02-29T01:31:27.585Z,38.83
2024-02-29T01:33:59.877Z,37.80
2024-02-29T01:36:32.251Z,38.40
2024-02-29T01:39:04.415Z,37.75
2024-02-29T01:41:37.505Z,37.83
2024-02-29T01:44:09.858Z,37.45
2024-02-29T01:46:42.874Z,40.08
2024-02-29T01:49:16.634Z,37.70
2024-02-29T01:51:49.699Z,38.40
2024-02-29T01:54:22.056Z,38.20
2024-02-29T01:56:54.353Z,40.17
2024-02-29T01:59:28.020Z,38.72
2024-02-29T02:02:00.567Z,38.33
2024-02-29T02:04:33.405Z,37.73
2024-02-29T02:07:06.104Z,38.63
2024-02-29T02:09:42.531Z,37.27
2024-02-29T02:12:15.005Z,36.67
2024-02-29T02:14:47.369Z,37.13
2024-02-29T02:17:19.641Z,39.28
2024-02-29T02:19:53.144Z,38.17
2024-02-29T02:22:25.903Z,37.67
2024-02-29T02:24:58.436Z,37.60
2024-02-29T02:27:30.690Z,35.97
2024-02-29T02:30:08.352Z,36.35
2024-02-29T02:32:41.516Z,38.35
2024-02-29T02:35:13.923Z,38.78
2024-02-29T02:37:49.116Z,38.38
2024-02-29T02:40:21.297Z,37.53
2024-02-29T02:42:53.595Z,38.50
2024-02-29T02:45:26.379Z,37.05
2024-02-29T02:47:58.760Z,41.25
2024-02-29T02:50:30.931Z,36.88
2024-02-29T02:53:05.529Z,36.60
2024-02-29T02:55:37.703Z,39.80
2024-02-29T02:58:10.121Z,39.28
2024-02-29T03:00:42.821Z,38.58
2024-02-29T03:03:15.567Z,36.97
2024-02-29T03:05:48.067Z,37.97
2024-02-29T03:08:22.078Z,40.03
2024-02-29T03:10:54.414Z,38.30
2024-02-29T03:13:26.774Z,40.53
2024-02-29T03:15:59.642Z,36.95
2024-02-29T03:18:31.966Z,36.65
2024-02-29T03:21:05.010Z,36.90
2024-02-29T03:23:37.412Z,39.08
2024-02-29T03:26:10.511Z,37.38
2024-02-29T03:28:43.348Z,38.50
2024-02-29T03:31:16.472Z,39.22
2024-02-29T03:33:48.719Z,38.63
2024-02-29T03:36:21.084Z,37.72
2024-02-29T03:38:53.306Z,36.65
2024-02-29T03:41:25.694Z,35.72
2024-02-29T03:43:58.227Z,36.90
2024-02-29T03:46:30.458Z,36.85
2024-02-29T03:49:02.670Z,37.13
2024-02-29T03:51:35.361Z,37.65
2024-02-29T03:54:07.875Z,36.60
2024-02-29T03:56:40.135Z,37.20
2024-02-29T03:59:12.458Z,37.78
2024-02-29T04:01:49.523Z,37.08
2024-02-29T04:04:22.059Z,38.28
2024-02-29T04:06:54.602Z,38.55
2024-02-29T04:09:26.903Z,36.20
2024-02-29T04:11:59.015Z,39.00
2024-02-29T04:14:31.273Z,36.70
2024-02-29T04:17:03.756Z,39.10
2024-02-29T04:19:35.984Z,37.50
2024-02-29T04:22:08.631Z,36.25
2024-02-29T04:24:41.094Z,38.58
2024-02-29T04:27:13.386Z,37.20
2024-02-29T04:29:47.472Z,38.35
2024-02-29T04:32:21.451Z,39.10
2024-02-29T04:34:55.079Z,38.03
2024-02-29T04:37:27.925Z,38.15
2024-02-29T04:40:00.483Z,40.13
2024-02-29T04:42:33.442Z,38.28
2024-02-29T04:45:07.004Z,39.22
2024-02-29T04:50:11.902Z,37.83
2024-02-29T04:52:44.626Z,37.63
2024-02-29T04:55:17.072Z,40.20
2024-02-29T04:57:49.537Z,41.05
2024-02-29T05:00:22.434Z,39.63
2024-02-29T05:02:55.306Z,40.70
2024-02-29T05:05:29.453Z,38.65
2024-02-29T05:08:02.170Z,39.20
2024-02-29T05:10:35.035Z,37.37
2024-02-29T05:13:07.471Z,38.63
2024-02-29T05:15:40.499Z,40.50
2024-02-29T05:18:12.790Z,38.72
2024-02-29T05:20:45.297Z,39.47
2024-02-29T05:23:17.729Z,39.23
2024-02-29T05:25:50.177Z,39.50
2024-02-29T05:28:22.387Z,40.05
2024-02-29T05:30:54.676Z,37.55
2024-02-29T05:33:27.497Z,39.70
2024-02-29T05:36:01.245Z,39.90
2024-02-29T05:41:05.989Z,38.25
2024-02-29T05:43:38.750Z,39.17
2024-02-29T05:46:11.347Z,41.47
2024-02-29T05:48:44.398Z,39.45
2024-02-29T05:51:16.729Z,40.65
2024-02-29T05:53:49.039Z,42.25
2024-02-29T05:56:21.551Z,40.60
2024-02-29T05:58:53.766Z,41.03
2024-02-29T06:01:26.059Z,41.53
2024-02-29T06:03:58.461Z,41.67
2024-02-29T06:06:30.741Z,42.08
2024-02-29T06:09:03.853Z,39.95
2024-02-29T06:11:36.696Z,41.78
2024-02-29T06:14:09.300Z,40.65
2024-02-29T06:16:41.857Z,41.75
2024-02-29T06:19:14.361Z,42.40
2024-02-29T06:21:47.410Z,41.38
2024-02-29T06:24:20.376Z,40.03
2024-02-29T06:26:52.705Z,40.58
2024-02-29T06:29:25.321Z,41.55
2024-02-29T06:31:58.596Z,41.43
2024-02-29T06:34:31.599Z,40.70
2024-02-29T06:37:04.257Z,42.47
2024-02-29T06:39:37.154Z,42.67
2024-02-29T06:42:09.437Z,40.72
2024-02-29T06:44:41.704Z,39.58
2024-02-29T06:47:14.231Z,43.97
2024-02-29T06:49:46.669Z,42.60
2024-02-29T06:52:19.080Z,41.92
2024-02-29T06:54:51.581Z,42.30
2024-02-29T06:57:23.787Z,42.78
2024-02-29T06:59:56.033Z,44.83
2024-02-29T07:02:28.289Z,43.28
2024-02-29T07:05:00.860Z,44.03
2024-02-29T07:07:33.331Z,44.88
2024-02-29T07:10:08.438Z,43.53
2024-02-29T07:12:42.426Z,43.95
2024-02-29T07:15:14.915Z,41.40
2024-02-29T07:17:47.380Z,44.75
2024-02-29T07:20:19.648Z,47.17
2024-02-29T07:22:53.050Z,43.42
2024-02-29T07:27:58.944Z,44.22
2024-02-29T07:30:31.891Z,44.65
2024-02-29T07:33:05.463Z,43.70
2024-02-29T07:35:38.231Z,44.67
2024-02-29T07:38:10.719Z,43.30
2024-02-29T07:40:43.305Z,45.10
2024-02-29T07:43:15.584Z,47.13
2024-02-29T07:45:47.980Z,45.10
2024-02-29T07:48:20.285Z,46.03
2024-02-29T07:50:53.954Z,48.35
2024-02-29T07:53:26.871Z,46.10
2024-02-29T07:55:59.748Z,46.60
2024-02-29T07:58:32.315Z,44.72
2024-02-29T08:01:05.107Z,45.92
2024-02-29T08:03:38.386Z,45.57
2024-02-29T08:06:11.196Z,45.03
2024-02-29T08:08:43.316Z,44.10
2024-02-29T08:11:15.656Z,45.78
2024-02-29T08:13:47.888Z,44.75
2024-02-29T08:16:20.132Z,46.53
2024-02-29T08:18:53.399Z,44.30
2024-02-29T08:21:25.808Z,44.58
2024-02-29T08:23:58.263Z,41.42
2024-02-29T08:26:31.064Z,46.60
2024-02-29T08:29:03.281Z,41.90
2024-02-29T08:31:35.976Z,42.15
2024-02-29T08:34:08.308Z,43.13
2024-02-29T08:36:41.180Z,41.45
2024-02-29T08:39:14.371Z,44.55
2024-02-29T08:41:46.824Z,40.67
2024-02-29T08:44:19.105Z,40.80
2024-02-29T08:46:51.545Z,41.42
2024-02-29T08:49:24.344Z,42.85
2024-02-29T08:51:57.245Z,40.17
2024-02-29T08:54:29.579Z,39.30
2024-02-29T08:57:04.765Z,40.72
2024-02-29T08:59:37.711Z,37.20
2024-02-29T09:02:10.098Z,37.63
2024-02-29T09:04:42.638Z,38.30
2024-02-29T09:07:15.101Z,37.37
2024-02-29T09:09:47.486Z,36.58
2024-02-29T09:12:22.365Z,35.92
2024-02-29T09:14:54.783Z,35.88
2024-02-29T09:17:27.012Z,35.00
2024-02-29T09:19:59.346Z,33.75
2024-02-29T09:22:31.806Z,32.50
2024-02-29T09:25:05.372Z,30.52
2024-02-29T09:30:10.263Z,27.83
2024-02-29T09:32:45.318Z,29.08
2024-02-29T09:35:17.641Z,23.67
2024-02-29T09:37:50.748Z,22.98
2024-02-29T09:40:23.163Z,26.95
2024-02-29T09:42:56.107Z,22.20
2024-02-29T09:45:35.673Z,20.95
2024-02-29T09:48:10.160Z,23.05
2024-02-29T09:50:42.610Z,23.33
2024-02-29T09:53:16.777Z,21.60
2024-02-29T09:55:49.711Z,23.95
2024-02-29T09:58:22.879Z,17.88
2024-02-29T10:00:55.102Z,22.00
2024-02-29T10:03:28.819Z,21.65
2024-02-29T10:06:01.640Z,22.85
2024-02-29T10:08:33.883Z,22.65
2024-02-29T10:11:07.094Z,22.67
2024-02-29T10:16:15.036Z,22.20
2024-02-29T10:18:47.352Z,22.33
2024-02-29T10:21:19.626Z,22.38
2024-02-29T10:23:52.158Z,23.52
2024-02-29T10:26:24.351Z,21.85
2024-02-29T10:29:09.400Z,22.17
2024-02-29T10:31:41.696Z,21.75
2024-02-29T10:34:14.723Z,22.35
2024-02-29T10:36:47.778Z,24.10
2024-02-29T10:39:20.212Z,23.03
2024-02-29T10:41:57.869Z,22.95
2024-02-29T10:44:33.892Z,22.98
2024-02-29T10:47:10.539Z,23.38
2024-02-29T10:49:48.520Z,23.33
2024-02-29T10:52:26.012Z,22.63
2024-02-29T10:55:07.308Z,24.02
2024-02-29T10:57:53.630Z,22.50
2024-02-29T11:00:27.115Z,23.48
2024-02-29T11:02:59.576Z,23.15
2024-02-29T11:05:32.408Z,24.00
2024-02-29T11:08:06.070Z,23.55
2024-02-29T11:10:39.559Z,21.67
2024-02-29T11:13:21.773Z,22.77
2024-02-29T11:15:56.787Z,22.75
2024-02-29T11:18:30.147Z,21.98
2024-02-29T11:21:06.775Z,23.58
2024-02-29T11:23:42.353Z,23.75
2024-02-29T11:26:14.746Z,22.92
2024-02-29T11:28:50.343Z,23.05
2024-02-29T11:31:23.491Z,21.67
2024-02-29T11:33:57.355Z,23.27
2024-02-29T11:36:33.590Z,21.95
2024-02-29T11:39:12.082Z,21.38
2024-02-29T11:41:45.694Z,22.13
2024-02-29T11:44:18.098Z,22.98
2024-02-29T11:46:51.365Z,21.95
2024-02-29T11:49:25.509Z,21.95
2024-02-29T11:51:58.705Z,22.50
2024-02-29T11:54:33.999Z,21.35
2024-02-29T11:57:07.102Z,21.95
2024-02-29T11:59:40.264Z,21.60
2024-02-29T12:02:13.330Z,21.40
2024-02-29T12:04:46.051Z,21.60
2024-02-29T12:07:18.693Z,21.33
2024-02-29T12:09:51.169Z,22.33
2024-02-29T12:12:23.658Z,21.77
2024-02-29T12:14:56.110Z,21.60
2024-02-29T12:17:28.676Z,20.20
2024-02-29T12:20:01.819Z,19.20
2024-02-29T12:22:34.348Z,19.92
2024-02-29T12:25:14.322Z,19.35
2024-02-29T12:27:47.263Z,18.98
2024-02-29T12:30:23.268Z,20.35
2024-02-29T12:32:56.340Z,19.98
2024-02-29T12:35:32.549Z,20.67
2024-02-29T12:38:04.962Z,20.27
2024-02-29T12:40:37.254Z,19.95
2024-02-29T12:43:15.088Z,20.80
2024-02-29T12:45:47.407Z,19.65
2024-02-29T12:48:20.182Z,19.60
2024-02-29T12:50:52.988Z,20.45
2024-02-29T12:53:25.496Z,23.00
2024-02-29T12:55:57.894Z,21.95
2024-02-29T12:58:30.229Z,23.42
2024-02-29T13:01:04.671Z,21.80
2024-02-29T13:03:37.037Z,22.80
2024-02-29T13:06:10.856Z,23.58
2024-02-29T13:08:43.061Z,22.77
2024-02-29T13:11:15.766Z,23.60
2024-02-29T13:13:48.049Z,21.63
2024-02-29T13:16:21.029Z,22.70
2024-02-29T13:18:53.297Z,22.70
2024-02-29T13:21:26.068Z,22.98
2024-02-29T13:23:58.453Z,21.73
2024-02-29T13:26:30.913Z,23.65
2024-02-29T13:29:04.223Z,22.95
2024-02-29T13:31:36.535Z,23.23
2024-02-29T13:34:08.861Z,23.13
2024-02-29T13:36:41.261Z,23.45
2024-02-29T13:39:13.529Z,23.40
2024-02-29T13:41:46.678Z,23.35
2024-02-29T13:44:20.108Z,24.63
2024-02-29T13:46:52.366Z,23.67
2024-02-29T13:49:24.656Z,23.27
2024-02-29T13:51:57.576Z,24.02
2024-02-29T13:54:29.786Z,22.95
2024-02-29T13:57:03.066Z,23.20
2024-02-29T13:59:35.362Z,26.42
2024-02-29T14:02:07.987Z,27.15
2024-02-29T14:04:40.327Z,25.10
2024-02-29T14:07:13.648Z,25.67
2024-02-29T14:09:45.906Z,27.30
2024-02-29T14:12:18.174Z,28.02
2024-02-29T14:14:50.417Z,30.92
2024-02-29T14:17:22.761Z,29.35
2024-02-29T14:19:55.201Z,28.90
2024-02-29T14:22:27.574Z,30.90
2024-02-29T14:24:59.862Z,29.65
2024-02-29T14:27:32.315Z,28.40
2024-02-29T14:30:10.371Z,28.42
2024-02-29T14:32:43.975Z,30.50
2024-02-29T14:35:16.608Z,30.05
2024-02-29T14:37:49.494Z,29.92
2024-02-29T14:40:21.800Z,28.25
2024-02-29T14:42:54.209Z,30.55
2024-02-29T14:45:26.606Z,30.48
2024-02-29T14:47:59.872Z,30.52
2024-02-29T14:50:32.324Z,32.97
2024-02-29T14:53:04.624Z,31.55
2024-02-29T14:55:37.290Z,31.52
2024-02-29T14:58:10.125Z,30.47
2024-02-29T15:00:43.283Z,30.00
2024-02-29T15:03:15.567Z,30.90
2024-02-29T15:05:48.180Z,30.40
2024-02-29T15:08:20.649Z,30.60
2024-02-29T15:10:53.133Z,31.17
2024-02-29T15:13:26.526Z,32.97
2024-02-29T15:15:58.969Z,29.13
2024-02-29T15:18:31.441Z,29.35
2024-02-29T15:21:03.923Z,29.88
2024-02-29T15:23:36.417Z,30.45
2024-02-29T15:26:12.247Z,28.93
2024-02-29T15:28:50.604Z,29.77
2024-02-29T15:31:23.062Z,29.10
2024-02-29T15:33:55.293Z,30.83
2024-02-29T15:36:27.729Z,29.83
2024-02-29T15:39:00.086Z,30.80
2024-02-29T15:41:33.048Z,30.80
2024-02-29T15:44:05.352Z,31.23
2024-02-29T15:46:38.354Z,30.65
2024-02-29T15:49:11.062Z,31.08
2024-02-29T15:51:43.319Z,29.38
2024-02-29T15:54:15.913Z,30.70
2024-02-29T15:56:49.245Z,30.23
2024-02-29T16:01:54.098Z,30.42
2024-02-29T16:04:27.289Z,31.02
2024-02-29T16:07:02.581Z,28.63
2024-02-29T16:09:34.823Z,30.63
2024-02-29T16:12:07.598Z,30.10
2024-02-29T16:14:41.770Z,29.23
2024-02-29T16:17:13.967Z,31.77
2024-02-29T16:19:47.997Z,31.90
2024-02-29T16:22:20.942Z,32.72
2024-02-29T16:24:53.223Z,30.45
2024-02-29T16:27:26.283Z,31.27
2024-02-29T16:29:58.556Z,31.45
2024-02-29T16:32:30.826Z,30.63
2024-02-29T16:35:05.079Z,31.25
2024-02-29T16:37:37.394Z,32.40
2024-02-29T16:40:10.955Z,32.63
2024-02-29T16:45:16.063Z,30.23
2024-02-29T16:47:48.449Z,32.08
2024-02-29T16:50:20.712Z,31.30
2024-02-29T16:52:52.946Z,31.02
2024-02-29T16:55:25.217Z,32.05
2024-02-29T16:57:57.813Z,31.27
2024-02-29T17:00:30.660Z,31.63
2024-02-29T17:03:02.962Z,32.20
2024-02-29T17:05:35.385Z,31.98
2024-02-29T17:08:09.606Z,31.63
2024-02-29T17:10:42.398Z,30.63
2024-02-29T17:13:15.017Z,33.60
2024-02-29T17:15:47.489Z,32.15
2024-02-29T17:18:20.240Z,31.10
2024-02-29T17:20:52.755Z,30.88
2024-02-29T17:23:25.122Z,32.40
2024-02-29T17:25:57.385Z,32.33
2024-02-29T17:28:29.851Z,32.85
2024-02-29T17:31:02.234Z,33.35
2024-02-29T17:33:35.010Z,30.95
2024-02-29T17:36:07.860Z,33.13
2024-02-29T17:38:42.300Z,30.63
2024-02-29T17:41:15.710Z,31.20
2024-02-29T17:43:48.268Z,30.60
2024-02-29T17:46:20.741Z,33.23
2024-02-29T17:48:53.485Z,33.13
2024-02-29T17:51:25.837Z,33.13
2024-02-29T17:53:58.038Z,32.60
2024-02-29T17:56:30.184Z,32.55
2024-02-29T17:59:02.454Z,32.50
2024-02-29T18:01:35.231Z,32.08
2024-02-29T18:04:07.897Z,32.45
2024-02-29T18:06:40.170Z,32.53
2024-02-29T18:09:14.154Z,32.35
2024-02-29T18:11:46.381Z,33.08
2024-02-29T18:14:19.469Z,33.05
2024-02-29T18:16:52.443Z,32.28
2024-02-29T18:19:24.785Z,32.63
2024-02-29T18:21:57.685Z,32.10
2024-02-29T18:24:31.492Z,32.65
2024-02-29T18:27:04.264Z,34.15
2024-02-29T18:29:36.868Z,34.33
2024-02-29T18:32:09.632Z,33.53
2024-02-29T18:34:41.834Z,32.30
2024-02-29T18:37:14.373Z,35.60
2024-02-29T18:39:46.891Z,34.08
2024-02-29T18:42:19.718Z,34.25
2024-02-29T18:44:53.093Z,33.95
2024-02-29T18:47:26.616Z,30.60
2024-02-29T18:49:59.432Z,36.78
2024-02-29T18:52:32.558Z,33.00
2024-02-29T18:55:09.076Z,34.55
2024-02-29T18:57:41.989Z,36.58
2024-02-29T19:00:16.595Z,33.47
2024-02-29T19:02:49.003Z,35.20
2024-02-29T19:05:21.757Z,36.05
2024-02-29T19:07:54.099Z,35.97
2024-02-29T19:10:26.885Z,35.73
2024-02-29T19:12:59.382Z,32.75
2024-02-29T19:15:32.167Z,30.90
2024-02-29T19:18:04.789Z,32.47
2024-02-29T19:20:37.379Z,28.52
2024-02-29T19:23:13.253Z,32.03
2024-02-29T19:25:49.946Z,32.72
2024-02-29T19:28:25.097Z,33.88
2024-02-29T19:30:57.629Z,35.08
2024-02-29T19:33:29.911Z,36.25
2024-02-29T19:36:02.334Z,32.75
2024-02-29T19:38:34.698Z,35.67
2024-02-29T19:41:07.182Z,36.58
2024-02-29T19:43:39.833Z,36.25
2024-02-29T19:46:14.610Z,37.10
2024-02-29T19:48:47.404Z,35.95
2024-02-29T19:51:19.587Z,34.85
2024-02-29T19:53:56.322Z,40.50
2024-02-29T19:56:29.049Z,35.25
2024-02-29T19:59:01.645Z,32.70
2024-02-29T20:01:34.267Z,43.95
2024-02-29T20:04:07.302Z,39.80
2024-02-29T20:06:43.177Z,42.00
2024-02-29T20:09:16.574Z,44.30
2024-02-29T20:14:21.948Z,42.75
2024-02-29T20:16:54.218Z,45.58
2024-02-29T20:19:27.015Z,45.97
2024-02-29T20:22:00.364Z,47.45
2024-02-29T20:24:32.911Z,49.72
2024-02-29T20:27:05.936Z,46.85
2024-02-29T20:29:40.781Z,47.42
2024-02-29T20:32:15.147Z,42.72
2024-02-29T20:34:48.756Z,43.85
2024-02-29T20:39:54.772Z,44.08
2024-02-29T20:44:59.676Z,41.33
2024-02-29T20:47:33.330Z,42.80
2024-02-29T20:50:06.150Z,43.80
2024-02-29T20:52:38.663Z,44.50
2024-02-29T20:55:11.494Z,42.88
2024-02-29T20:57:44.508Z,39.80
2024-02-29T21:00:17.642Z,41.80
2024-02-29T21:02:50.039Z,44.60
2024-02-29T21:05:22.484Z,43.42
2024-02-29T21:07:55.285Z,46.08
2024-02-29T21:10:27.593Z,46.25
2024-02-29T21:13:00.878Z,47.70
2024-02-29T21:15:33.134Z,45.40
2024-02-29T21:18:06.893Z,42.08
2024-02-29T21:20:39.226Z,45.33
2024-02-29T21:23:11.466Z,43.17
2024-02-29T21:25:44.002Z,41.33
2024-02-29T21:28:16.715Z,42.45
2024-02-29T21:30:48.970Z,43.87
2024-02-29T21:33:23.354Z,42.85
2024-02-29T21:35:56.141Z,41.78
2024-02-29T21:38:29.231Z,40.38
2024-02-29T21:41:01.404Z,40.10
2024-02-29T21:43:33.950Z,41.92
2024-02-29T21:46:08.485Z,43.65
2024-02-29T21:48:41.131Z,42.05
2024-02-29T21:51:20.060Z,42.75
2024-02-29T21:53:52.388Z,43.55
2024-02-29T21:56:24.568Z,41.08
2024-02-29T21:58:57.412Z,40.40
2024-02-29T22:01:29.846Z,42.15
2024-02-29T22:04:02.832Z,40.42
2024-02-29T22:06:35.350Z,42.00
2024-02-29T22:09:07.572Z,40.83
2024-02-29T22:11:39.854Z,40.75
2024-02-29T22:14:12.268Z,38.80
2024-02-29T22:16:45.158Z,42.63
2024-02-29T22:19:17.454Z,39.33
2024-02-29T22:21:50.503Z,37.97
2024-02-29T22:24:22.997Z,38.08
2024-02-29T22:26:56.071Z,39.00
2024-02-29T22:29:29.831Z,41.07
2024-02-29T22:32:02.333Z,37.78
2024-02-29T22:34:34.762Z,39.85
2024-02-29T22:37:07.338Z,40.80
2024-02-29T22:39:40.235Z,38.33
2024-02-29T22:42:13.165Z,37.58
2024-02-29T22:44:46.381Z,37.10
2024-02-29T22:49:51.761Z,35.80
2024-02-29T22:52:24.320Z,37.45
2024-02-29T22:54:56.603Z,39.65
2024-02-29T22:57:29.382Z,36.58
2024-02-29T23:00:09.608Z,38.72
2024-02-29T23:02:43.085Z,36.25
2024-02-29T23:05:16.025Z,38.05
2024-02-29T23:07:48.485Z,42.72
2024-02-29T23:10:21.381Z,49.43
2024-02-29T23:12:54.676Z,50.73
2024-02-29T23:15:26.927Z,41.80
2024-02-29T23:17:59.311Z,45.40
2024-02-29T23:20:31.529Z,40.92
2024-02-29T23:23:04.117Z,42.72
2024-02-29T23:25:37.196Z,38.22
2024-02-29T23:28:09.690Z,37.72
2024-02-29T23:30:41.931Z,36.47
2024-02-29T23:33:14.419Z,39.20
2024-02-29T23:35:47.056Z,38.30
2024-02-29T23:38:19.888Z,40.10
2024-02-29T23:40:52.421Z,42.28
2024-02-29T23:43:25.254Z,41.28
2024-02-29T23:45:57.626Z,42.17
2024-02-29T23:48:29.813Z,44.35
2024-02-29T23:51:02.889Z,43.20
2024-02-29T23:53:35.065Z,40.17
2024-02-29T23:56:07.754Z,37.40
2024-02-29T23:58:41.797Z,39.45
